sensor_id;sensor_type;location;lat;lon;timestamp;pressure;altitude;pressure_sealevel;temperature;humidity
70437;BME280;57877;39.750;-104.894;2023-04-10T00:01:09;84171.84;;;21.47;9.57
70437;BME280;57877;39.750;-104.894;2023-04-10T00:03:35;84175.77;;;21.63;9.52
70437;BME280;57877;39.750;-104.894;2023-04-10T00:06:01;84176.80;;;21.67;9.27
70437;BME280;57877;39.750;-104.894;2023-04-10T00:08:27;84184.45;;;21.71;9.29
70437;BME280;57877;39.750;-104.894;2023-04-10T00:10:53;84185.17;;;21.69;9.30
70437;BME280;57877;39.750;-104.894;2023-04-10T00:13:19;84181.89;;;21.32;9.33
70437;BME280;57877;39.750;-104.894;2023-04-10T00:15:45;84186.01;;;21.76;9.12
70437;BME280;57877;39.750;-104.894;2023-04-10T00:18:11;84189.24;;;20.88;9.54
70437;BME280;57877;39.750;-104.894;2023-04-10T00:20:37;84189.11;;;21.47;9.36
70437;BME280;57877;39.750;-104.894;2023-04-10T00:23:03;84188.84;;;20.86;9.78
70437;BME280;57877;39.750;-104.894;2023-04-10T00:25:29;84188.77;;;20.74;9.74
70437;BME280;57877;39.750;-104.894;2023-04-10T00:27:55;84189.45;;;20.81;9.91
70437;BME280;57877;39.750;-104.894;2023-04-10T00:30:21;84188.63;;;20.42;10.17
70437;BME280;57877;39.750;-104.894;2023-04-10T00:32:47;84189.39;;;19.82;10.63
70437;BME280;57877;39.750;-104.894;2023-04-10T00:35:13;84190.39;;;19.89;10.47
70437;BME280;57877;39.750;-104.894;2023-04-10T00:37:39;84196.97;;;20.10;10.30
70437;BME280;57877;39.750;-104.894;2023-04-10T00:40:05;84192.95;;;19.20;10.73
70437;BME280;57877;39.750;-104.894;2023-04-10T00:42:30;84199.56;;;20.40;10.34
70437;BME280;57877;39.750;-104.894;2023-04-10T00:44:56;84199.16;;;20.04;10.18
70437;BME280;57877;39.750;-104.894;2023-04-10T00:47:22;84197.72;;;20.45;10.08
70437;BME280;57877;39.750;-104.894;2023-04-10T00:49:49;84200.15;;;19.54;10.62
70437;BME280;57877;39.750;-104.894;2023-04-10T00:52:14;84202.82;;;19.94;10.66
70437;BME280;57877;39.750;-104.894;2023-04-10T00:54:40;84206.58;;;19.99;10.57
70437;BME280;57877;39.750;-104.894;2023-04-10T00:57:06;84210.16;;;19.64;10.52
70437;BME280;57877;39.750;-104.894;2023-04-10T00:59:33;84217.09;;;19.87;10.70
70437;BME280;57877;39.750;-104.894;2023-04-10T01:01:59;84223.50;;;18.99;11.22
70437;BME280;57877;39.750;-104.894;2023-04-10T01:04:25;84230.64;;;19.43;11.17
70437;BME280;57877;39.750;-104.894;2023-04-10T01:06:56;84232.58;;;18.82;9.92
70437;BME280;57877;39.750;-104.894;2023-04-10T01:09:22;84232.49;;;18.06;9.18
70437;BME280;57877;39.750;-104.894;2023-04-10T01:11:52;84231.67;;;17.21;9.47
70437;BME280;57877;39.750;-104.894;2023-04-10T01:14:20;84223.13;;;16.96;9.36
70437;BME280;57877;39.750;-104.894;2023-04-10T01:16:39;84233.17;;;17.39;10.07
70437;BME280;57877;39.750;-104.894;2023-04-10T01:19:07;84247.79;;;17.16;11.21
70437;BME280;57877;39.750;-104.894;2023-04-10T01:21:27;84251.02;;;16.39;10.57
70437;BME280;57877;39.750;-104.894;2023-04-10T01:24:04;84251.05;;;16.78;10.39
70437;BME280;57877;39.750;-104.894;2023-04-10T01:26:35;84252.36;;;17.60;9.99
70437;BME280;57877;39.750;-104.894;2023-04-10T01:28:51;84257.77;;;16.82;10.33
70437;BME280;57877;39.750;-104.894;2023-04-10T01:31:17;84255.49;;;17.04;10.15
70437;BME280;57877;39.750;-104.894;2023-04-10T01:33:41;84256.42;;;17.48;9.95
70437;BME280;57877;39.750;-104.894;2023-04-10T01:36:05;84264.03;;;17.11;11.66
70437;BME280;57877;39.750;-104.894;2023-04-10T01:38:29;84270.46;;;16.86;12.32
70437;BME280;57877;39.750;-104.894;2023-04-10T01:40:54;84275.84;;;16.81;11.41
70437;BME280;57877;39.750;-104.894;2023-04-10T01:43:20;84278.12;;;16.58;10.56
70437;BME280;57877;39.750;-104.894;2023-04-10T01:45:47;84281.80;;;16.46;10.50
70437;BME280;57877;39.750;-104.894;2023-04-10T01:48:11;84281.55;;;17.27;10.13
70437;BME280;57877;39.750;-104.894;2023-04-10T01:50:38;84285.51;;;17.28;9.97
70437;BME280;57877;39.750;-104.894;2023-04-10T01:53:05;84286.93;;;16.65;10.11
70437;BME280;57877;39.750;-104.894;2023-04-10T01:55:31;84288.36;;;17.25;9.92
70437;BME280;57877;39.750;-104.894;2023-04-10T01:57:55;84289.44;;;17.14;9.87
70437;BME280;57877;39.750;-104.894;2023-04-10T02:00:21;84289.99;;;17.70;9.61
70437;BME280;57877;39.750;-104.894;2023-04-10T02:02:47;84291.47;;;17.95;9.55
70437;BME280;57877;39.750;-104.894;2023-04-10T02:05:16;84288.67;;;17.80;9.40
70437;BME280;57877;39.750;-104.894;2023-04-10T02:07:45;84294.29;;;18.09;9.25
70437;BME280;57877;39.750;-104.894;2023-04-10T02:10:09;84297.28;;;17.91;9.32
70437;BME280;57877;39.750;-104.894;2023-04-10T02:12:38;84300.14;;;17.92;9.22
70437;BME280;57877;39.750;-104.894;2023-04-10T02:14:59;84300.37;;;17.63;9.33
70437;BME280;57877;39.750;-104.894;2023-04-10T02:17:28;84308.91;;;17.51;9.43
70437;BME280;57877;39.750;-104.894;2023-04-10T02:19:50;84311.31;;;17.40;9.38
70437;BME280;57877;39.750;-104.894;2023-04-10T02:22:16;84315.37;;;17.54;9.37
70437;BME280;57877;39.750;-104.894;2023-04-10T02:24:42;84322.22;;;17.42;9.47
70437;BME280;57877;39.750;-104.894;2023-04-10T02:27:07;84326.59;;;17.65;9.44
70437;BME280;57877;39.750;-104.894;2023-04-10T02:29:33;84329.49;;;17.37;9.55
70437;BME280;57877;39.750;-104.894;2023-04-10T02:31:59;84333.43;;;17.52;9.48
70437;BME280;57877;39.750;-104.894;2023-04-10T02:34:25;84337.53;;;17.54;9.51
70437;BME280;57877;39.750;-104.894;2023-04-10T02:36:51;84340.44;;;17.62;9.54
70437;BME280;57877;39.750;-104.894;2023-04-10T02:39:17;84346.46;;;17.48;9.62
70437;BME280;57877;39.750;-104.894;2023-04-10T02:41:43;84349.48;;;17.42;9.84
70437;BME280;57877;39.750;-104.894;2023-04-10T02:44:09;84352.22;;;17.25;9.78
70437;BME280;57877;39.750;-104.894;2023-04-10T02:46:35;84354.39;;;16.84;9.86
70437;BME280;57877;39.750;-104.894;2023-04-10T02:49:01;84360.31;;;17.11;9.93
70437;BME280;57877;39.750;-104.894;2023-04-10T02:51:27;84364.57;;;17.16;9.98
70437;BME280;57877;39.750;-104.894;2023-04-10T02:53:53;84370.73;;;17.26;10.00
70437;BME280;57877;39.750;-104.894;2023-04-10T02:56:19;84377.88;;;17.26;9.99
70437;BME280;57877;39.750;-104.894;2023-04-10T02:58:45;84382.95;;;17.13;10.07
70437;BME280;57877;39.750;-104.894;2023-04-10T03:01:12;84387.96;;;17.08;10.16
70437;BME280;57877;39.750;-104.894;2023-04-10T03:03:37;84389.21;;;17.02;10.24
70437;BME280;57877;39.750;-104.894;2023-04-10T03:06:04;84390.01;;;16.98;10.14
70437;BME280;57877;39.750;-104.894;2023-04-10T03:08:29;84389.88;;;16.82;10.23
70437;BME280;57877;39.750;-104.894;2023-04-10T03:10:55;84391.80;;;16.60;10.33
70437;BME280;57877;39.750;-104.894;2023-04-10T03:13:21;84394.66;;;16.40;10.41
70437;BME280;57877;39.750;-104.894;2023-04-10T03:15:47;84398.03;;;16.91;10.35
70437;BME280;57877;39.750;-104.894;2023-04-10T03:18:13;84400.31;;;16.88;10.35
70437;BME280;57877;39.750;-104.894;2023-04-10T03:20:39;84409.76;;;16.75;10.47
70437;BME280;57877;39.750;-104.894;2023-04-10T03:23:05;84413.95;;;16.51;10.52
70437;BME280;57877;39.750;-104.894;2023-04-10T03:25:33;84421.56;;;16.06;10.67
70437;BME280;57877;39.750;-104.894;2023-04-10T03:27:57;84428.85;;;16.35;10.67
70437;BME280;57877;39.750;-104.894;2023-04-10T03:30:23;84430.03;;;16.04;10.73
70437;BME280;57877;39.750;-104.894;2023-04-10T03:32:49;84435.69;;;16.53;10.72
70437;BME280;57877;39.750;-104.894;2023-04-10T03:35:15;84433.98;;;16.25;10.89
70437;BME280;57877;39.750;-104.894;2023-04-10T03:37:41;84434.67;;;15.87;11.09
70437;BME280;57877;39.750;-104.894;2023-04-10T03:42:33;84448.39;;;15.82;11.19
70437;BME280;57877;39.750;-104.894;2023-04-10T03:44:59;84451.28;;;15.34;11.44
70437;BME280;57877;39.750;-104.894;2023-04-10T03:47:25;84454.84;;;15.06;11.54
70437;BME280;57877;39.750;-104.894;2023-04-10T03:49:51;84459.65;;;15.33;11.63
70437;BME280;57877;39.750;-104.894;2023-04-10T03:52:17;84461.37;;;15.29;11.56
70437;BME280;57877;39.750;-104.894;2023-04-10T03:54:43;84460.14;;;15.23;11.58
70437;BME280;57877;39.750;-104.894;2023-04-10T03:57:09;84461.52;;;14.91;11.97
70437;BME280;57877;39.750;-104.894;2023-04-10T03:59:35;84461.64;;;14.74;11.89
70437;BME280;57877;39.750;-104.894;2023-04-10T04:02:01;84466.43;;;15.28;12.03
70437;BME280;57877;39.750;-104.894;2023-04-10T04:04:27;84472.88;;;15.19;12.14
70437;BME280;57877;39.750;-104.894;2023-04-10T04:06:53;84472.72;;;15.25;12.23
70437;BME280;57877;39.750;-104.894;2023-04-10T04:09:19;84474.98;;;15.00;12.17
70437;BME280;57877;39.750;-104.894;2023-04-10T04:11:45;84476.27;;;15.03;12.33
70437;BME280;57877;39.750;-104.894;2023-04-10T04:14:11;84476.41;;;14.77;12.59
70437;BME280;57877;39.750;-104.894;2023-04-10T04:16:37;84478.55;;;14.84;12.44
70437;BME280;57877;39.750;-104.894;2023-04-10T04:19:03;84489.80;;;14.86;12.38
70437;BME280;57877;39.750;-104.894;2023-04-10T04:21:29;84522.45;;;13.07;13.88
70437;BME280;57877;39.750;-104.894;2023-04-10T04:23:55;84524.73;;;12.05;16.46
70437;BME280;57877;39.750;-104.894;2023-04-10T04:26:21;84525.31;;;12.13;17.65
70437;BME280;57877;39.750;-104.894;2023-04-10T04:28:47;84526.85;;;12.01;18.31
70437;BME280;57877;39.750;-104.894;2023-04-10T04:31:13;84524.00;;;11.96;19.29
70437;BME280;57877;39.750;-104.894;2023-04-10T04:33:39;84524.98;;;12.42;19.65
70437;BME280;57877;39.750;-104.894;2023-04-10T04:36:05;84522.67;;;11.93;19.91
70437;BME280;57877;39.750;-104.894;2023-04-10T04:38:31;84521.78;;;11.79;20.44
70437;BME280;57877;39.750;-104.894;2023-04-10T04:40:57;84525.76;;;12.01;20.49
70437;BME280;57877;39.750;-104.894;2023-04-10T04:43:23;84528.05;;;12.13;20.73
70437;BME280;57877;39.750;-104.894;2023-04-10T04:45:49;84528.92;;;11.86;20.85
70437;BME280;57877;39.750;-104.894;2023-04-10T04:48:15;84528.61;;;12.24;20.41
70437;BME280;57877;39.750;-104.894;2023-04-10T04:50:41;84526.10;;;12.44;20.08
70437;BME280;57877;39.750;-104.894;2023-04-10T04:53:07;84524.40;;;12.18;20.00
70437;BME280;57877;39.750;-104.894;2023-04-10T04:55:33;84526.20;;;11.63;20.34
70437;BME280;57877;39.750;-104.894;2023-04-10T04:57:59;84529.02;;;12.68;19.93
70437;BME280;57877;39.750;-104.894;2023-04-10T05:00:25;84524.72;;;11.90;20.26
70437;BME280;57877;39.750;-104.894;2023-04-10T05:02:51;84522.31;;;11.45;20.79
70437;BME280;57877;39.750;-104.894;2023-04-10T05:05:17;84523.26;;;11.60;20.53
70437;BME280;57877;39.750;-104.894;2023-04-10T05:07:43;84523.46;;;11.75;20.59
70437;BME280;57877;39.750;-104.894;2023-04-10T05:10:09;84523.73;;;12.43;19.85
70437;BME280;57877;39.750;-104.894;2023-04-10T05:12:35;84520.39;;;11.95;19.98
70437;BME280;57877;39.750;-104.894;2023-04-10T05:15:01;84524.27;;;11.75;20.40
70437;BME280;57877;39.750;-104.894;2023-04-10T05:17:27;84527.84;;;11.58;20.50
70437;BME280;57877;39.750;-104.894;2023-04-10T05:19:53;84532.15;;;11.81;20.36
70437;BME280;57877;39.750;-104.894;2023-04-10T05:22:19;84533.61;;;12.28;20.01
70437;BME280;57877;39.750;-104.894;2023-04-10T05:24:45;84537.24;;;11.67;19.65
70437;BME280;57877;39.750;-104.894;2023-04-10T05:27:11;84541.02;;;12.25;19.53
70437;BME280;57877;39.750;-104.894;2023-04-10T05:29:37;84539.65;;;12.23;19.51
70437;BME280;57877;39.750;-104.894;2023-04-10T05:32:03;84540.90;;;12.33;19.46
70437;BME280;57877;39.750;-104.894;2023-04-10T05:34:29;84542.38;;;12.17;19.55
70437;BME280;57877;39.750;-104.894;2023-04-10T05:36:55;84540.05;;;11.65;19.91
70437;BME280;57877;39.750;-104.894;2023-04-10T05:39:21;84538.54;;;11.93;19.66
70437;BME280;57877;39.750;-104.894;2023-04-10T05:41:47;84538.57;;;12.24;19.49
70437;BME280;57877;39.750;-104.894;2023-04-10T05:44:13;84538.87;;;11.14;20.35
70437;BME280;57877;39.750;-104.894;2023-04-10T05:46:39;84536.51;;;12.22;19.84
70437;BME280;57877;39.750;-104.894;2023-04-10T05:49:05;84535.92;;;11.81;19.96
70437;BME280;57877;39.750;-104.894;2023-04-10T05:51:31;84539.86;;;11.94;19.90
70437;BME280;57877;39.750;-104.894;2023-04-10T05:53:57;84540.11;;;11.94;19.97
70437;BME280;57877;39.750;-104.894;2023-04-10T05:56:23;84538.80;;;11.89;20.00
70437;BME280;57877;39.750;-104.894;2023-04-10T05:58:48;84545.72;;;12.18;19.78
70437;BME280;57877;39.750;-104.894;2023-04-10T06:01:15;84549.07;;;12.02;19.60
70437;BME280;57877;39.750;-104.894;2023-04-10T06:03:41;84551.16;;;12.35;19.74
70437;BME280;57877;39.750;-104.894;2023-04-10T06:06:07;84554.50;;;12.04;19.83
70437;BME280;57877;39.750;-104.894;2023-04-10T06:08:33;84557.11;;;12.05;19.65
70437;BME280;57877;39.750;-104.894;2023-04-10T06:10:58;84556.51;;;12.38;19.56
70437;BME280;57877;39.750;-104.894;2023-04-10T06:13:24;84559.74;;;12.13;19.64
70437;BME280;57877;39.750;-104.894;2023-04-10T06:15:51;84559.79;;;11.96;19.84
70437;BME280;57877;39.750;-104.894;2023-04-10T06:18:17;84561.21;;;12.48;19.78
70437;BME280;57877;39.750;-104.894;2023-04-10T06:20:42;84561.77;;;12.20;19.88
70437;BME280;57877;39.750;-104.894;2023-04-10T06:23:09;84559.64;;;11.84;20.24
70437;BME280;57877;39.750;-104.894;2023-04-10T06:25:34;84563.58;;;11.88;20.45
70437;BME280;57877;39.750;-104.894;2023-04-10T06:28:00;84561.43;;;11.60;20.83
70437;BME280;57877;39.750;-104.894;2023-04-10T06:30:26;84563.67;;;11.80;20.77
70437;BME280;57877;39.750;-104.894;2023-04-10T06:32:52;84559.54;;;11.54;21.08
70437;BME280;57877;39.750;-104.894;2023-04-10T06:35:18;84563.14;;;11.56;21.09
70437;BME280;57877;39.750;-104.894;2023-04-10T06:37:44;84565.32;;;11.51;21.53
70437;BME280;57877;39.750;-104.894;2023-04-10T06:40:12;84565.09;;;11.03;21.67
70437;BME280;57877;39.750;-104.894;2023-04-10T06:42:37;84563.82;;;11.31;21.87
70437;BME280;57877;39.750;-104.894;2023-04-10T06:45:03;84561.12;;;10.87;21.95
70437;BME280;57877;39.750;-104.894;2023-04-10T06:47:28;84563.44;;;11.09;21.91
70437;BME280;57877;39.750;-104.894;2023-04-10T06:49:54;84565.34;;;10.80;21.89
70437;BME280;57877;39.750;-104.894;2023-04-10T06:52:21;84570.40;;;10.54;22.11
70437;BME280;57877;39.750;-104.894;2023-04-10T06:54:46;84570.35;;;10.91;21.99
70437;BME280;57877;39.750;-104.894;2023-04-10T06:57:12;84573.41;;;10.67;22.19
70437;BME280;57877;39.750;-104.894;2023-04-10T06:59:37;84572.53;;;10.60;22.25
70437;BME280;57877;39.750;-104.894;2023-04-10T07:02:03;84571.50;;;10.83;22.21
70437;BME280;57877;39.750;-104.894;2023-04-10T07:04:28;84568.89;;;11.22;21.84
70437;BME280;57877;39.750;-104.894;2023-04-10T07:06:52;84564.67;;;10.86;21.95
70437;BME280;57877;39.750;-104.894;2023-04-10T07:09:19;84563.23;;;10.64;22.15
70437;BME280;57877;39.750;-104.894;2023-04-10T07:11:43;84563.42;;;11.04;22.01
70437;BME280;57877;39.750;-104.894;2023-04-10T07:14:10;84560.42;;;10.36;22.15
70437;BME280;57877;39.750;-104.894;2023-04-10T07:16:35;84562.32;;;10.77;22.23
70437;BME280;57877;39.750;-104.894;2023-04-10T07:19:00;84563.12;;;10.89;22.10
70437;BME280;57877;39.750;-104.894;2023-04-10T07:21:25;84567.16;;;10.83;21.90
70437;BME280;57877;39.750;-104.894;2023-04-10T07:23:49;84567.18;;;10.67;22.23
70437;BME280;57877;39.750;-104.894;2023-04-10T07:26:16;84562.82;;;11.05;21.86
70437;BME280;57877;39.750;-104.894;2023-04-10T07:28:42;84561.63;;;10.95;21.88
70437;BME280;57877;39.750;-104.894;2023-04-10T07:31:08;84559.40;;;10.83;21.75
70437;BME280;57877;39.750;-104.894;2023-04-10T07:33:33;84563.28;;;10.21;22.02
70437;BME280;57877;39.750;-104.894;2023-04-10T07:35:58;84561.87;;;10.46;22.02
70437;BME280;57877;39.750;-104.894;2023-04-10T07:38:24;84566.50;;;10.79;21.86
70437;BME280;57877;39.750;-104.894;2023-04-10T07:40:49;84566.09;;;10.96;21.68
70437;BME280;57877;39.750;-104.894;2023-04-10T07:43:14;84567.00;;;10.81;21.50
70437;BME280;57877;39.750;-104.894;2023-04-10T07:45:40;84565.63;;;10.78;21.67
70437;BME280;57877;39.750;-104.894;2023-04-10T07:48:04;84567.29;;;10.99;21.53
70437;BME280;57877;39.750;-104.894;2023-04-10T07:50:29;84565.14;;;10.29;21.72
70437;BME280;57877;39.750;-104.894;2023-04-10T07:52:54;84560.10;;;10.74;21.61
70437;BME280;57877;39.750;-104.894;2023-04-10T07:55:19;84557.06;;;10.40;21.59
70437;BME280;57877;39.750;-104.894;2023-04-10T07:57:44;84556.96;;;10.65;21.82
70437;BME280;57877;39.750;-104.894;2023-04-10T08:00:10;84554.32;;;10.31;22.16
70437;BME280;57877;39.750;-104.894;2023-04-10T08:02:34;84549.31;;;9.74;22.93
70437;BME280;57877;39.750;-104.894;2023-04-10T08:04:59;84550.58;;;9.90;22.84
70437;BME280;57877;39.750;-104.894;2023-04-10T08:07:25;84549.50;;;9.91;22.72
70437;BME280;57877;39.750;-104.894;2023-04-10T08:09:51;84549.59;;;9.42;22.68
70437;BME280;57877;39.750;-104.894;2023-04-10T08:12:17;84547.23;;;9.57;22.72
70437;BME280;57877;39.750;-104.894;2023-04-10T08:14:42;84543.94;;;9.39;22.23
70437;BME280;57877;39.750;-104.894;2023-04-10T08:17:07;84544.55;;;9.28;21.83
70437;BME280;57877;39.750;-104.894;2023-04-10T08:19:32;84541.01;;;9.77;21.87
70437;BME280;57877;39.750;-104.894;2023-04-10T08:21:57;84537.92;;;9.93;21.63
70437;BME280;57877;39.750;-104.894;2023-04-10T08:24:22;84536.27;;;9.56;21.49
70437;BME280;57877;39.750;-104.894;2023-04-10T08:26:48;84530.73;;;9.42;21.51
70437;BME280;57877;39.750;-104.894;2023-04-10T08:29:13;84528.81;;;9.43;21.32
70437;BME280;57877;39.750;-104.894;2023-04-10T08:31:38;84527.80;;;9.20;21.22
70437;BME280;57877;39.750;-104.894;2023-04-10T08:34:04;84525.81;;;9.20;21.02
70437;BME280;57877;39.750;-104.894;2023-04-10T08:36:29;84521.61;;;9.23;21.09
70437;BME280;57877;39.750;-104.894;2023-04-10T08:38:54;84517.32;;;9.41;20.96
70437;BME280;57877;39.750;-104.894;2023-04-10T08:41:20;84512.89;;;9.39;20.51
70437;BME280;57877;39.750;-104.894;2023-04-10T08:43:45;84511.58;;;9.46;20.43
70437;BME280;57877;39.750;-104.894;2023-04-10T08:46:10;84505.02;;;9.50;20.72
70437;BME280;57877;39.750;-104.894;2023-04-10T08:48:38;84504.36;;;9.20;20.62
70437;BME280;57877;39.750;-104.894;2023-04-10T08:51:04;84501.08;;;9.37;20.57
70437;BME280;57877;39.750;-104.894;2023-04-10T08:53:28;84501.71;;;9.10;20.60
70437;BME280;57877;39.750;-104.894;2023-04-10T08:55:52;84505.57;;;9.06;20.72
70437;BME280;57877;39.750;-104.894;2023-04-10T08:58:16;84503.62;;;8.64;20.71
70437;BME280;57877;39.750;-104.894;2023-04-10T09:00:42;84501.72;;;8.95;20.74
70437;BME280;57877;39.750;-104.894;2023-04-10T09:03:09;84501.92;;;9.02;20.68
70437;BME280;57877;39.750;-104.894;2023-04-10T09:05:32;84498.97;;;9.07;20.49
70437;BME280;57877;39.750;-104.894;2023-04-10T09:07:57;84498.90;;;8.95;20.56
70437;BME280;57877;39.750;-104.894;2023-04-10T09:10:23;84502.09;;;8.83;20.66
70437;BME280;57877;39.750;-104.894;2023-04-10T09:12:48;84505.45;;;8.28;21.04
70437;BME280;57877;39.750;-104.894;2023-04-10T09:15:13;84495.98;;;8.30;20.88
70437;BME280;57877;39.750;-104.894;2023-04-10T09:17:38;84495.66;;;8.58;21.05
70437;BME280;57877;39.750;-104.894;2023-04-10T09:20:19;84501.90;;;8.81;21.05
70437;BME280;57877;39.750;-104.894;2023-04-10T09:22:30;84501.87;;;8.14;21.39
70437;BME280;57877;39.750;-104.894;2023-04-10T09:24:54;84500.51;;;8.33;21.34
70437;BME280;57877;39.750;-104.894;2023-04-10T09:27:27;84499.50;;;8.34;21.39
70437;BME280;57877;39.750;-104.894;2023-04-10T09:29:45;84501.12;;;8.20;22.22
70437;BME280;57877;39.750;-104.894;2023-04-10T09:32:09;84496.57;;;7.97;22.79
70437;BME280;57877;39.750;-104.894;2023-04-10T09:34:37;84494.50;;;7.90;23.25
70437;BME280;57877;39.750;-104.894;2023-04-10T09:37:00;84496.28;;;7.82;23.65
70437;BME280;57877;39.750;-104.894;2023-04-10T09:39:32;84496.81;;;7.70;24.15
70437;BME280;57877;39.750;-104.894;2023-04-10T09:41:50;84496.40;;;7.68;24.81
70437;BME280;57877;39.750;-104.894;2023-04-10T09:44:15;84494.03;;;8.04;24.46
70437;BME280;57877;39.750;-104.894;2023-04-10T09:46:39;84495.10;;;7.76;25.25
70437;BME280;57877;39.750;-104.894;2023-04-10T09:49:04;84496.61;;;7.80;25.58
70437;BME280;57877;39.750;-104.894;2023-04-10T09:51:30;84494.35;;;7.51;26.09
70437;BME280;57877;39.750;-104.894;2023-04-10T09:53:54;84494.41;;;7.46;26.26
70437;BME280;57877;39.750;-104.894;2023-04-10T09:56:19;84496.56;;;7.68;26.03
70437;BME280;57877;39.750;-104.894;2023-04-10T09:58:45;84499.26;;;7.75;25.96
70437;BME280;57877;39.750;-104.894;2023-04-10T10:01:12;84500.44;;;7.89;25.90
70437;BME280;57877;39.750;-104.894;2023-04-10T10:03:35;84500.77;;;7.66;26.13
70437;BME280;57877;39.750;-104.894;2023-04-10T10:06:01;84496.81;;;7.83;26.07
70437;BME280;57877;39.750;-104.894;2023-04-10T10:08:27;84494.75;;;7.57;26.35
70437;BME280;57877;39.750;-104.894;2023-04-10T10:10:55;84492.30;;;7.62;26.18
70437;BME280;57877;39.750;-104.894;2023-04-10T10:13:25;84490.37;;;7.64;26.27
70437;BME280;57877;39.750;-104.894;2023-04-10T10:15:48;84487.02;;;7.77;26.43
70437;BME280;57877;39.750;-104.894;2023-04-10T10:18:16;84486.59;;;7.58;26.36
70437;BME280;57877;39.750;-104.894;2023-04-10T10:20:35;84483.62;;;7.75;26.37
70437;BME280;57877;39.750;-104.894;2023-04-10T10:23:02;84483.87;;;7.48;26.62
70437;BME280;57877;39.750;-104.894;2023-04-10T10:25:25;84483.98;;;7.30;26.64
70437;BME280;57877;39.750;-104.894;2023-04-10T10:27:51;84481.31;;;7.69;26.36
70437;BME280;57877;39.750;-104.894;2023-04-10T10:30:16;84481.00;;;7.36;26.44
70437;BME280;57877;39.750;-104.894;2023-04-10T10:32:45;84480.75;;;7.26;26.52
70437;BME280;57877;39.750;-104.894;2023-04-10T10:35:08;84477.44;;;7.11;26.61
70437;BME280;57877;39.750;-104.894;2023-04-10T10:37:32;84472.95;;;6.94;26.77
70437;BME280;57877;39.750;-104.894;2023-04-10T10:40:02;84471.13;;;7.10;26.82
70437;BME280;57877;39.750;-104.894;2023-04-10T10:42:29;84468.46;;;7.19;26.87
70437;BME280;57877;39.750;-104.894;2023-04-10T10:44:57;84465.85;;;6.93;26.67
70437;BME280;57877;39.750;-104.894;2023-04-10T10:47:18;84464.12;;;6.81;26.74
70437;BME280;57877;39.750;-104.894;2023-04-10T10:52:07;84461.71;;;7.03;26.64
70437;BME280;57877;39.750;-104.894;2023-04-10T10:54:34;84462.64;;;6.75;26.53
70437;BME280;57877;39.750;-104.894;2023-04-10T10:56:58;84459.04;;;6.64;26.60
70437;BME280;57877;39.750;-104.894;2023-04-10T11:06:49;84456.16;;;6.55;26.75
70437;BME280;57877;39.750;-104.894;2023-04-10T11:09:06;84457.93;;;6.55;26.26
70437;BME280;57877;39.750;-104.894;2023-04-10T11:11:31;84459.54;;;6.54;25.97
70437;BME280;57877;39.750;-104.894;2023-04-10T11:16:22;84459.30;;;6.34;25.30
70437;BME280;57877;39.750;-104.894;2023-04-10T11:21:12;84455.78;;;6.27;24.98
70437;BME280;57877;39.750;-104.894;2023-04-10T11:23:36;84456.80;;;6.03;24.54
70437;BME280;57877;39.750;-104.894;2023-04-10T11:26:01;84459.24;;;5.94;24.59
70437;BME280;57877;39.750;-104.894;2023-04-10T11:28:34;84464.56;;;6.35;24.37
70437;BME280;57877;39.750;-104.894;2023-04-10T11:30:51;84462.38;;;6.42;24.11
70437;BME280;57877;39.750;-104.894;2023-04-10T11:33:17;84460.55;;;6.64;23.84
70437;BME280;57877;39.750;-104.894;2023-04-10T11:35:45;84458.45;;;6.55;23.68
70437;BME280;57877;39.750;-104.894;2023-04-10T11:38:09;84456.49;;;6.78;23.51
70437;BME280;57877;39.750;-104.894;2023-04-10T11:40:32;84453.53;;;6.91;23.66
70437;BME280;57877;39.750;-104.894;2023-04-10T11:45:24;84453.88;;;6.80;23.72
70437;BME280;57877;39.750;-104.894;2023-04-10T11:47:51;84456.88;;;6.46;24.13
70437;BME280;57877;39.750;-104.894;2023-04-10T11:50:13;84460.81;;;6.73;23.94
70437;BME280;57877;39.750;-104.894;2023-04-10T11:52:37;84464.17;;;6.33;24.16
70437;BME280;57877;39.750;-104.894;2023-04-10T11:55:02;84464.56;;;6.34;25.66
70437;BME280;57877;39.750;-104.894;2023-04-10T11:57:33;84464.63;;;5.74;26.65
70437;BME280;57877;39.750;-104.894;2023-04-10T11:59:52;84463.55;;;6.21;26.89
70437;BME280;57877;39.750;-104.894;2023-04-10T12:02:17;84465.66;;;5.79;27.77
70437;BME280;57877;39.750;-104.894;2023-04-10T12:04:43;84465.92;;;5.77;27.95
70437;BME280;57877;39.750;-104.894;2023-04-10T12:07:08;84464.05;;;5.66;28.27
70437;BME280;57877;39.750;-104.894;2023-04-10T12:09:33;84464.36;;;6.07;28.04
70437;BME280;57877;39.750;-104.894;2023-04-10T12:11:59;84462.06;;;5.74;28.32
70437;BME280;57877;39.750;-104.894;2023-04-10T12:14:27;84458.26;;;5.94;28.05
70437;BME280;57877;39.750;-104.894;2023-04-10T12:16:48;84456.81;;;5.92;28.10
70437;BME280;57877;39.750;-104.894;2023-04-10T12:19:13;84458.56;;;5.53;28.61
70437;BME280;57877;39.750;-104.894;2023-04-10T12:21:39;84459.28;;;5.46;28.69
70437;BME280;57877;39.750;-104.894;2023-04-10T12:24:03;84460.15;;;5.53;28.99
70437;BME280;57877;39.750;-104.894;2023-04-10T12:26:28;84462.05;;;5.66;28.82
70437;BME280;57877;39.750;-104.894;2023-04-10T12:28:54;84465.12;;;5.75;28.75
70437;BME280;57877;39.750;-104.894;2023-04-10T12:31:19;84467.53;;;5.58;28.96
70437;BME280;57877;39.750;-104.894;2023-04-10T12:33:44;84469.88;;;5.35;29.26
70437;BME280;57877;39.750;-104.894;2023-04-10T12:38:39;84480.13;;;4.60;30.04
70437;BME280;57877;39.750;-104.894;2023-04-10T12:40:58;84479.90;;;4.88;29.85
70437;BME280;57877;39.750;-104.894;2023-04-10T12:43:29;84483.85;;;5.04;30.02
70437;BME280;57877;39.750;-104.894;2023-04-10T12:45:48;84487.32;;;5.16;29.99
70437;BME280;57877;39.750;-104.894;2023-04-10T12:48:22;84494.59;;;5.01;30.37